Time;durP1;ratioP1;P1;durP2;ratioP2;P2;SDS_P1;SDS_P2;PMS_P1;PMS_P2;Temp;Humidity;BMP_temperature;BMP_pressure;BME280_temperature;BME280_humidity;BME280_pressure;Samples;Min_cycle;Max_cycle;Signal;HPM_P1;HPM_P2
2021/11/28 00:01:57;;;;;;;0.00;0.00;;;;;;;2.09;89.58;99627.13;5076108;28;20298;-65
2021/11/28 00:04:23;;;;;;;0.43;0.43;;;;;;;2.10;89.60;99629.78;5076496;28;20378;-65
2021/11/28 00:12:13;;;;;;;0.10;0.10;;;;;;;2.09;89.40;99634.88;5055848;28;20279;-66
2021/11/28 00:14:40;;;;;;;0.53;0.53;;;;;;;2.10;89.34;99642.69;5056094;28;20283;-65
2021/11/28 00:17:06;;;;;;;0.10;0.10;;;;;;;2.13;89.37;99641.94;5075934;28;20603;-64
2021/11/28 00:19:32;;;;;;;0.10;0.10;;;;;;;2.12;89.15;99646.22;5074000;28;20330;-64
2021/11/28 00:21:57;;;;;;;0.10;0.10;;;;;;;2.13;89.40;99645.41;5057338;28;20372;-65
2021/11/28 00:24:22;;;;;;;0.10;0.10;;;;;;;2.13;89.13;99640.22;5060782;28;20032;-66
2021/11/28 00:26:49;;;;;;;0.20;0.20;;;;;;;2.13;89.24;99636.78;5075578;28;20326;-65
2021/11/28 00:29:14;;;;;;;0.23;0.23;;;;;;;2.16;89.64;99648.13;5075671;28;20087;-65
2021/11/28 00:31:40;;;;;;;0.10;0.10;;;;;;;2.15;89.28;99658.41;5059556;28;20388;-64
2021/11/28 00:34:05;;;;;;;0.10;0.10;;;;;;;2.16;89.23;99655.88;5076021;28;20035;-66
2021/11/28 00:36:31;;;;;;;0.20;0.20;;;;;;;2.19;89.25;99662.88;5074947;28;20025;-64
2021/11/28 00:38:56;;;;;;;0.10;0.10;;;;;;;2.19;89.36;99666.34;5075617;28;20056;-65
2021/11/28 00:41:21;;;;;;;0.13;0.13;;;;;;;2.19;89.08;99662.88;5075954;28;20071;-65
2021/11/28 00:43:47;;;;;;;0.10;0.10;;;;;;;2.20;89.18;99659.47;5075398;28;20029;-65
2021/11/28 00:46:12;;;;;;;0.10;0.10;;;;;;;2.22;89.42;99664.72;5074452;28;20115;-66
2021/11/28 00:48:42;;;;;;;0.20;0.20;;;;;;;2.22;89.19;99667.31;5060519;28;20094;-64
2021/11/28 00:51:21;;;;;;;0.10;0.10;;;;;;;2.22;89.21;99669.91;5075244;28;20287;-64
2021/11/28 00:53:49;;;;;;;0.17;0.17;;;;;;;2.23;89.18;99666.50;5075503;28;20289;-66
2021/11/28 00:56:15;;;;;;;0.20;0.20;;;;;;;2.24;89.38;99676.88;5058622;28;20541;-66
2021/11/28 00:58:40;;;;;;;0.20;0.20;;;;;;;2.22;88.90;99688.84;5075173;28;20279;-65
2021/11/28 01:01:06;;;;;;;0.10;0.10;;;;;;;2.26;89.11;99682.09;5075808;28;20144;-65
2021/11/28 01:03:32;;;;;;;0.13;0.13;;;;;;;2.29;89.13;99690.88;5057567;28;20169;-65
2021/11/28 01:05:57;;;;;;;0.10;0.10;;;;;;;2.27;88.90;99697.69;5056267;28;20040;-65
2021/11/28 01:08:26;;;;;;;0.20;0.20;;;;;;;2.28;89.10;99701.13;5075350;28;20290;-65
2021/11/28 01:10:51;;;;;;;0.10;0.10;;;;;;;2.28;88.89;99694.28;5075461;28;20032;-65
2021/11/28 01:13:26;;;;;;;0.07;0.07;;;;;;;2.25;88.99;99690.69;5075635;28;20282;-65
2021/11/28 01:15:57;;;;;;;0.10;0.10;;;;;;;2.25;88.77;99696.72;5075429;28;20024;-65
2021/11/28 01:18:27;;;;;;;0.30;0.30;;;;;;;2.26;88.81;99703.69;5075298;28;20283;-65
2021/11/28 01:20:55;;;;;;;0.10;0.10;;;;;;;2.26;88.93;99702.78;5075416;28;20282;-66
2021/11/28 01:23:21;;;;;;;0.10;0.10;;;;;;;2.29;88.78;99718.41;5057941;28;20307;-65
2021/11/28 01:25:46;;;;;;;0.10;0.10;;;;;;;2.28;88.98;99712.38;5079154;28;20327;-65
2021/11/28 01:28:11;;;;;;;0.13;0.13;;;;;;;2.30;88.63;99712.44;5061730;28;20035;-65
2021/11/28 01:30:37;;;;;;;0.30;0.30;;;;;;;2.30;89.00;99721.06;5061536;28;20028;-65
2021/11/28 01:33:02;;;;;;;0.10;0.10;;;;;;;2.31;88.95;99730.56;5061790;28;20025;-64
2021/11/28 01:35:27;;;;;;;0.10;0.10;;;;;;;2.34;88.88;99729.84;5061181;28;20028;-66
2021/11/28 01:37:53;;;;;;;0.10;0.10;;;;;;;2.39;88.91;99735.19;5079362;28;20055;-64
2021/11/28 01:40:20;;;;;;;0.10;0.10;;;;;;;2.34;88.56;99729.84;5077933;28;20044;-65
2021/11/28 01:42:52;;;;;;;0.17;0.17;;;;;;;2.34;88.67;99735.00;5078800;28;20021;-64
2021/11/28 01:45:21;;;;;;;0.10;0.10;;;;;;;2.33;88.50;99730.66;5078502;28;20270;-64
2021/11/28 01:47:47;;;;;;;0.17;0.17;;;;;;;2.32;88.64;99734.91;5078602;28;20270;-64
2021/11/28 01:50:12;;;;;;;0.20;0.20;;;;;;;2.31;88.56;99729.72;5061427;28;20327;-64
2021/11/28 01:52:38;;;;;;;0.07;0.07;;;;;;;2.30;88.22;99728.81;5060783;28;20109;-65
2021/11/28 01:55:10;;;;;;;0.13;0.13;;;;;;;2.31;88.75;99732.28;5061254;28;20112;-65
2021/11/28 01:57:36;;;;;;;0.10;0.10;;;;;;;2.30;88.89;99740.88;5078115;28;20299;-65
2021/11/28 02:00:09;;;;;;;0.10;0.10;;;;;;;2.28;88.61;99747.63;5078117;28;20282;-65
2021/11/28 02:02:34;;;;;;;0.10;0.10;;;;;;;2.31;88.82;99752.97;5078226;28;20029;-66
2021/11/28 02:05:00;;;;;;;0.10;0.10;;;;;;;2.31;88.49;99752.97;5061345;28;20652;-64
2021/11/28 02:07:27;;;;;;;0.10;0.10;;;;;;;2.30;88.56;99746.91;5077392;28;20406;-66
2021/11/28 02:09:55;;;;;;;0.10;0.10;;;;;;;2.30;88.63;99746.03;5078465;28;20286;-65
2021/11/28 02:12:24;;;;;;;0.10;0.10;;;;;;;2.31;88.67;99750.38;5078444;28;20295;-66
2021/11/28 02:14:49;;;;;;;0.23;0.23;;;;;;;2.31;88.54;99750.38;5077585;28;20303;-65
2021/11/28 02:17:15;;;;;;;0.40;0.40;;;;;;;2.31;88.81;99761.56;5078126;28;20364;-65
2021/11/28 02:19:40;;;;;;;0.20;0.20;;;;;;;2.32;88.67;99757.31;5078012;28;20029;-64
2021/11/28 02:22:05;;;;;;;0.10;0.10;;;;;;;2.31;88.63;99755.53;5077875;28;20020;-65
2021/11/28 02:24:31;;;;;;;0.10;0.10;;;;;;;2.31;88.60;99759.00;5078232;28;20390;-65
2021/11/28 02:26:56;;;;;;;0.10;0.10;;;;;;;2.31;88.66;99766.75;5077842;28;20032;-64
2021/11/28 02:29:22;;;;;;;0.10;0.10;;;;;;;2.32;88.41;99772.81;5078511;28;20043;-65
2021/11/28 02:31:47;;;;;;;0.20;0.20;;;;;;;2.35;88.28;99775.53;5077033;28;20037;-65
2021/11/28 02:34:13;;;;;;;0.10;0.10;;;;;;;2.35;88.00;99782.41;5078856;28;20047;-65
2021/11/28 02:36:38;;;;;;;0.27;0.27;;;;;;;2.36;88.07;99779.00;5077005;28;20051;-66
2021/11/28 02:39:04;;;;;;;0.10;0.10;;;;;;;2.36;88.04;99782.44;5078251;28;20028;-65
2021/11/28 02:41:29;;;;;;;0.20;0.20;;;;;;;2.37;87.99;99784.22;5060539;28;20120;-65
2021/11/28 02:43:54;;;;;;;0.07;0.07;;;;;;;2.38;88.02;99787.69;5078525;28;20035;-65
2021/11/28 02:46:20;;;;;;;0.50;0.50;;;;;;;2.39;87.97;99787.78;5077895;28;20066;-65
2021/11/28 02:48:45;;;;;;;0.20;0.20;;;;;;;2.40;88.17;99789.53;5077342;28;20040;-66
2021/11/28 02:51:11;;;;;;;0.10;0.10;;;;;;;2.41;88.12;99788.72;5077815;28;20032;-65
2021/11/28 02:53:36;;;;;;;0.10;0.10;;;;;;;2.43;88.14;99786.22;5060728;28;20031;-67
2021/11/28 02:56:04;;;;;;;0.10;0.10;;;;;;;2.46;87.74;99795.00;5078159;28;20023;-65
2021/11/28 02:58:31;;;;;;;0.20;0.20;;;;;;;2.45;87.38;99792.31;5077923;28;20028;-65
2021/11/28 03:01:10;;;;;;;0.40;0.40;;;;;;;2.46;86.92;99800.16;5078039;28;20281;-66
2021/11/28 03:03:36;;;;;;;0.00;0.00;;;;;;;2.50;86.42;99797.69;5077606;28;20287;-65
2021/11/28 03:06:01;;;;;;;0.10;0.10;;;;;;;2.45;86.25;99800.06;5077122;28;20274;-65
2021/11/28 03:08:27;;;;;;;0.20;0.20;;;;;;;2.39;86.36;99795.53;5077641;28;20099;-65
2021/11/28 03:10:54;;;;;;;0.20;0.20;;;;;;;2.32;86.21;99793.47;5077898;28;20052;-65
2021/11/28 03:13:27;;;;;;;0.10;0.10;;;;;;;2.24;86.43;99787.09;5060474;28;20338;-65
2021/11/28 03:15:59;;;;;;;0.20;0.20;;;;;;;2.16;86.24;99789.31;5060450;28;20319;-66
2021/11/28 03:18:27;;;;;;;0.10;0.10;;;;;;;2.10;86.57;99791.63;5076993;28;20298;-65
2021/11/28 03:20:54;;;;;;;0.13;0.13;;;;;;;2.02;87.02;99788.69;5077264;28;20541;-65
2021/11/28 03:23:27;;;;;;;0.20;0.20;;;;;;;1.92;87.33;99785.69;5077485;28;20282;-65
2021/11/28 03:26:09;;;;;;;0.20;0.20;;;;;;;1.85;87.47;99787.88;5077621;28;20271;-65
2021/11/28 03:28:36;;;;;;;0.10;0.10;;;;;;;1.76;87.59;99791.81;5077535;28;20282;-65
2021/11/28 03:31:02;;;;;;;0.30;0.30;;;;;;;1.71;87.79;99798.47;5077630;28;20274;-65
2021/11/28 03:33:27;;;;;;;0.20;0.20;;;;;;;1.66;88.00;99799.94;5077276;28;20449;-65
2021/11/28 03:35:53;;;;;;;0.20;0.20;;;;;;;1.63;87.95;99810.13;5076919;28;20085;-65
2021/11/28 03:38:18;;;;;;;0.20;0.20;;;;;;;1.58;87.90;99817.66;5077232;28;20028;-66
2021/11/28 03:40:44;;;;;;;0.10;0.10;;;;;;;1.54;88.02;99810.56;5074806;28;20269;-64
2021/11/28 03:43:09;;;;;;;0.20;0.20;;;;;;;1.53;88.12;99815.63;5076747;28;20021;-66
2021/11/28 03:45:35;;;;;;;0.10;0.10;;;;;;;1.50;88.25;99808.66;5076294;28;20434;-66
2021/11/28 03:48:01;;;;;;;0.20;0.20;;;;;;;1.45;88.23;99813.59;5076102;28;20398;-65
2021/11/28 03:50:26;;;;;;;0.20;0.20;;;;;;;1.43;88.37;99814.34;5076414;28;20029;-66
2021/11/28 03:52:51;;;;;;;0.20;0.20;;;;;;;1.37;88.42;99815.78;5059661;28;20025;-66
2021/11/28 03:55:18;;;;;;;0.10;0.10;;;;;;;1.35;88.24;99812.25;5076484;28;20041;-65
2021/11/28 03:57:43;;;;;;;0.10;0.10;;;;;;;1.30;88.22;99811.13;5059540;28;20046;-65
2021/11/28 04:00:11;;;;;;;0.20;0.20;;;;;;;1.28;88.53;99814.44;5076597;28;20662;-66
2021/11/28 04:02:37;;;;;;;0.10;0.10;;;;;;;1.25;88.45;99814.31;5059167;28;20028;-66
2021/11/28 04:05:03;;;;;;;0.20;0.20;;;;;;;1.21;88.53;99818.41;5076897;28;20278;-65
2021/11/28 04:07:28;;;;;;;0.23;0.23;;;;;;;1.18;88.74;99820.88;5042116;28;20013;-65
2021/11/28 04:09:54;;;;;;;0.30;0.30;;;;;;;1.18;88.82;99815.69;5059285;28;20561;-65
2021/11/28 04:12:19;;;;;;;0.20;0.20;;;;;;;1.16;88.68;99812.13;5076824;28;20024;-65
2021/11/28 04:14:44;;;;;;;0.27;0.27;;;;;;;1.13;88.74;99806.84;5058749;28;20024;-65
2021/11/28 04:17:10;;;;;;;0.30;0.30;;;;;;;1.14;88.58;99809.50;5076703;28;20329;-65
2021/11/28 04:19:35;;;;;;;0.20;0.20;;;;;;;1.14;89.14;99813.75;5058755;28;20443;-65
2021/11/28 04:22:01;;;;;;;0.10;0.10;;;;;;;1.13;88.89;99814.59;5058906;28;20389;-65
2021/11/28 04:24:26;;;;;;;0.23;0.23;;;;;;;1.12;88.90;99807.66;5076089;28;20055;-65
2021/11/28 04:26:52;;;;;;;0.43;0.30;;;;;;;1.10;88.97;99812.72;5076324;28;20122;-65
2021/11/28 04:29:18;;;;;;;0.13;0.13;;;;;;;1.08;89.06;99812.63;5076671;28;20021;-66
2021/11/28 04:31:43;;;;;;;0.20;0.20;;;;;;;1.04;88.94;99815.00;5075753;28;20405;-65
2021/11/28 04:34:08;;;;;;;0.20;0.20;;;;;;;1.01;88.78;99809.69;5076543;28;20024;-65
2021/11/28 04:36:34;;;;;;;0.30;0.30;;;;;;;0.96;88.94;99810.31;5075485;28;20047;-65
2021/11/28 04:38:59;;;;;;;0.20;0.20;;;;;;;0.95;89.01;99810.28;5076271;28;20295;-65
2021/11/28 04:41:25;;;;;;;0.20;0.20;;;;;;;0.91;89.39;99808.34;5075908;28;20033;-66
2021/11/28 04:43:59;;;;;;;0.20;0.20;;;;;;;0.87;89.11;99809.88;5076115;28;20055;-66
2021/11/28 04:46:24;;;;;;;0.30;0.30;;;;;;;0.83;89.03;99810.53;5075929;28;20275;-66
2021/11/28 04:48:50;;;;;;;0.20;0.20;;;;;;;0.80;89.10;99810.34;5058199;28;20396;-66
2021/11/28 04:51:16;;;;;;;0.30;0.30;;;;;;;0.77;89.23;99808.53;5075906;28;20024;-65
2021/11/28 04:53:41;;;;;;;0.23;0.23;;;;;;;0.76;89.28;99814.47;5058673;28;20138;-65
2021/11/28 04:56:07;;;;;;;0.10;0.10;;;;;;;0.74;88.94;99813.50;5076231;28;20028;-64
2021/11/28 04:58:32;;;;;;;0.30;0.30;;;;;;;0.71;89.28;99815.03;5059819;28;20097;-66
2021/11/28 05:00:58;;;;;;;0.20;0.20;;;;;;;0.67;89.30;99817.47;5080354;28;20039;-66
2021/11/28 05:03:23;;;;;;;0.30;0.30;;;;;;;0.66;89.31;99822.53;5080901;28;20665;-65
2021/11/28 05:05:49;;;;;;;0.23;0.23;;;;;;;0.64;89.31;99825.03;5079060;28;20025;-65
2021/11/28 05:08:14;;;;;;;0.20;0.20;;;;;;;0.62;89.27;99830.94;5080275;28;20024;-65
2021/11/28 05:10:39;;;;;;;0.10;0.10;;;;;;;0.60;89.43;99828.25;5079904;28;20024;-65
2021/11/28 05:13:05;;;;;;;0.13;0.13;;;;;;;0.61;89.47;99834.31;5080153;28;20103;-66
2021/11/28 05:15:30;;;;;;;0.20;0.20;;;;;;;0.60;89.36;99837.66;5079448;28;20052;-66
2021/11/28 05:17:59;;;;;;;0.30;0.30;;;;;;;0.60;89.62;99835.09;5080128;28;20024;-66
2021/11/28 05:20:24;;;;;;;0.20;0.20;;;;;;;0.59;89.36;99836.81;5062138;28;20240;-65
2021/11/28 05:22:49;;;;;;;0.20;0.20;;;;;;;0.56;89.64;99841.78;5046182;28;20344;-65
2021/11/28 05:25:15;;;;;;;0.10;0.10;;;;;;;0.53;89.49;99841.63;5079465;28;20280;-65
2021/11/28 05:27:42;;;;;;;0.30;0.30;;;;;;;0.50;89.35;99850.06;5062156;28;20024;-65
2021/11/28 05:30:08;;;;;;;0.10;0.10;;;;;;;0.52;89.57;99855.31;5079782;28;20345;-66
2021/11/28 05:32:34;;;;;;;0.30;0.30;;;;;;;0.59;89.68;99854.84;5079279;28;20289;-65
2021/11/28 05:34:59;;;;;;;0.20;0.20;;;;;;;0.64;89.65;99848.22;5079900;28;20304;-65
2021/11/28 05:37:25;;;;;;;0.20;0.20;;;;;;;0.65;89.71;99841.38;5079119;28;20405;-65
2021/11/28 05:39:50;;;;;;;0.20;0.20;;;;;;;0.64;89.62;99845.66;5045523;28;20028;-65
2021/11/28 05:42:16;;;;;;;0.20;0.20;;;;;;;0.61;89.63;99849.78;5078920;28;20036;-66
2021/11/28 05:44:41;;;;;;;0.10;0.10;;;;;;;0.54;89.53;99849.44;5079415;28;20035;-65
2021/11/28 05:47:06;;;;;;;0.30;0.30;;;;;;;0.52;89.60;99853.66;5078935;28;20031;-65
2021/11/28 05:49:32;;;;;;;0.30;0.30;;;;;;;0.51;89.57;99849.28;5045159;28;20112;-65
2021/11/28 05:51:57;;;;;;;0.20;0.20;;;;;;;0.49;89.75;99850.88;5079044;28;20029;-65
2021/11/28 05:54:23;;;;;;;0.20;0.20;;;;;;;0.45;89.50;99855.78;5078920;28;20311;-64
2021/11/28 05:56:48;;;;;;;0.23;0.23;;;;;;;0.42;89.62;99858.22;5079185;28;20020;-66
2021/11/28 05:59:14;;;;;;;0.20;0.20;;;;;;;0.42;89.56;99863.38;5079235;28;20035;-64
2021/11/28 06:01:46;;;;;;;0.27;0.27;;;;;;;0.39;89.79;99866.66;5078713;28;20024;-65
2021/11/28 06:04:12;;;;;;;0.20;0.20;;;;;;;0.36;89.54;99876.78;5062025;28;20294;-64
2021/11/28 06:06:37;;;;;;;0.10;0.10;;;;;;;0.36;89.71;99875.09;5078540;28;20285;-64
2021/11/28 06:09:02;;;;;;;0.20;0.20;;;;;;;0.36;89.64;99880.25;5061763;28;20424;-65
2021/11/28 06:11:28;;;;;;;0.20;0.20;;;;;;;0.35;89.86;99873.34;5077809;28;20024;-64
2021/11/28 06:13:53;;;;;;;0.10;0.10;;;;;;;0.32;89.79;99880.00;5079036;28;20017;-64
2021/11/28 06:16:19;;;;;;;0.20;0.20;;;;;;;0.28;89.74;99873.81;5078348;28;20064;-65
2021/11/28 06:18:44;;;;;;;0.10;0.10;;;;;;;0.26;89.75;99873.72;5078599;28;20111;-65
2021/11/28 06:21:09;;;;;;;0.10;0.10;;;;;;;0.26;90.34;99873.72;5078272;28;20021;-65
2021/11/28 06:23:35;;;;;;;0.10;0.10;;;;;;;0.27;89.57;99878.06;5061115;28;20060;-65
2021/11/28 06:26:00;;;;;;;0.23;0.23;;;;;;;0.24;89.77;99879.59;5079072;28;20025;-65
2021/11/28 06:28:25;;;;;;;0.20;0.20;;;;;;;0.23;89.63;99882.97;5078759;28;20020;-65
2021/11/28 06:30:51;;;;;;;0.20;0.20;;;;;;;0.23;89.85;99886.44;5078968;28;20024;-65
2021/11/28 06:33:17;;;;;;;0.27;0.27;;;;;;;0.22;89.79;99889.81;5078464;28;20383;-64
2021/11/28 06:35:42;;;;;;;0.20;0.20;;;;;;;0.21;89.84;99895.78;5078737;28;20039;-65
2021/11/28 06:38:07;;;;;;;0.10;0.10;;;;;;;0.20;89.91;99896.59;5078364;28;20272;-64
2021/11/28 06:40:33;;;;;;;0.20;0.20;;;;;;;0.18;89.89;99898.16;5078240;28;20020;-64
2021/11/28 06:42:58;;;;;;;0.20;0.20;;;;;;;0.21;89.86;99906.06;5078543;28;20375;-64
2021/11/28 06:45:23;;;;;;;0.20;0.20;;;;;;;0.25;89.83;99907.13;5060795;28;20081;-65
2021/11/28 06:47:53;;;;;;;0.20;0.20;;;;;;;0.27;90.02;99903.81;5060839;28;20380;-65
2021/11/28 06:50:18;;;;;;;0.20;0.20;;;;;;;0.31;89.84;99904.00;5060226;28;20037;-64
2021/11/28 06:52:43;;;;;;;0.20;0.20;;;;;;;0.33;90.05;99905.88;5060720;28;20401;-65
2021/11/28 06:55:09;;;;;;;0.30;0.30;;;;;;;0.35;90.10;99913.66;5078240;28;20038;-65
2021/11/28 06:57:34;;;;;;;0.10;0.10;;;;;;;0.36;90.11;99916.31;5077847;28;20370;-64
2021/11/28 07:00:00;;;;;;;0.20;0.20;;;;;;;0.39;89.96;99916.47;5060570;28;20039;-64
2021/11/28 07:02:25;;;;;;;0.10;0.10;;;;;;;0.42;90.20;99912.31;5077685;28;20020;-64
2021/11/28 07:04:50;;;;;;;0.10;0.10;;;;;;;0.40;90.15;99922.53;5078101;28;20036;-65
2021/11/28 07:07:16;;;;;;;0.10;0.10;;;;;;;0.40;90.13;99927.69;5059576;28;20033;-64
2021/11/28 07:09:41;;;;;;;0.17;0.17;;;;;;;0.42;90.23;99923.50;5077541;28;20024;-64
2021/11/28 07:12:07;;;;;;;0.10;0.10;;;;;;;0.44;90.17;99937.34;5077860;28;20059;-64
2021/11/28 07:14:32;;;;;;;0.33;0.33;;;;;;;0.46;90.21;99933.19;5077356;28;20040;-64
2021/11/28 07:16:58;;;;;;;0.27;0.27;;;;;;;0.47;90.22;99936.63;5077840;28;20028;-65
2021/11/28 07:19:23;;;;;;;0.30;0.30;;;;;;;0.48;90.21;99944.44;5077674;28;20024;-64
2021/11/28 07:21:49;;;;;;;0.20;0.20;;;;;;;0.51;89.95;99951.47;5042853;28;20024;-64
2021/11/28 07:24:14;;;;;;;0.20;0.20;;;;;;;0.55;90.15;99948.22;5059702;28;20412;-65
2021/11/28 07:26:40;;;;;;;0.10;0.10;;;;;;;0.58;90.13;99951.00;5077119;28;20322;-65
2021/11/28 07:29:05;;;;;;;0.20;0.20;;;;;;;0.63;89.89;99949.53;5076416;28;20032;-64
2021/11/28 07:31:31;;;;;;;0.07;0.07;;;;;;;0.69;90.14;99959.31;5077255;28;20290;-65
2021/11/28 07:33:56;;;;;;;0.13;0.13;;;;;;;0.76;90.23;99952.78;5077170;28;20028;-65
2021/11/28 07:36:22;;;;;;;0.10;0.10;;;;;;;0.82;90.30;99961.72;5076604;28;20158;-65
2021/11/28 07:38:47;;;;;;;0.20;0.20;;;;;;;0.90;90.32;99966.41;5076930;28;20020;-65
2021/11/28 07:41:12;;;;;;;0.10;0.10;;;;;;;0.98;90.24;99987.44;5059276;28;20032;-65
2021/11/28 07:43:38;;;;;;;0.10;0.10;;;;;;;1.07;90.39;99987.94;5059566;28;20027;-65
2021/11/28 07:46:04;;;;;;;0.10;0.10;;;;;;;1.13;90.31;99995.09;5077040;28;20106;-65
2021/11/28 07:48:29;;;;;;;0.00;0.00;;;;;;;1.22;90.08;100003.31;5059129;28;20116;-64
2021/11/28 07:50:55;;;;;;;0.10;0.10;;;;;;;1.33;90.41;100001.31;5056657;28;20063;-67
2021/11/28 07:53:20;;;;;;;0.10;0.10;;;;;;;1.38;90.40;99992.13;5042076;28;20023;-65
2021/11/28 07:55:46;;;;;;;0.20;0.20;;;;;;;1.43;90.30;99992.34;5076301;28;20302;-67
2021/11/28 07:58:12;;;;;;;0.00;0.00;;;;;;;1.46;90.42;99989.94;5076524;28;20102;-67
2021/11/28 08:00:38;;;;;;;0.00;0.00;;;;;;;1.51;90.24;100004.81;5063411;28;20334;-66
2021/11/28 08:03:03;;;;;;;0.10;0.10;;;;;;;1.57;90.29;99993.06;5071319;28;20283;-66
2021/11/28 08:05:30;;;;;;;0.20;0.20;;;;;;;1.60;90.19;100000.94;5075262;28;20406;-66
2021/11/28 08:07:58;;;;;;;0.10;0.10;;;;;;;1.65;90.24;100007.25;5075972;28;20297;-67
2021/11/28 08:10:24;;;;;;;0.00;0.00;;;;;;;1.69;90.15;100004.03;5075995;28;20714;-67
2021/11/28 08:12:49;;;;;;;0.10;0.10;;;;;;;1.73;90.02;100011.09;5075231;28;20279;-67
2021/11/28 08:15:19;;;;;;;0.10;0.10;;;;;;;1.75;89.93;100009.47;5058723;28;20370;-68
2021/11/28 08:17:47;;;;;;;0.00;0.00;;;;;;;1.77;90.00;100018.22;5075703;28;20110;-67
2021/11/28 08:20:14;;;;;;;0.00;0.00;;;;;;;1.82;89.86;100022.69;5076059;28;20280;-67
2021/11/28 08:22:40;;;;;;;0.13;0.13;;;;;;;1.86;89.65;100029.81;5071527;28;20286;-68
2021/11/28 08:25:08;;;;;;;0.10;0.10;;;;;;;1.90;89.52;100039.47;5075152;28;20309;-68
2021/11/28 08:27:34;;;;;;;0.10;0.10;;;;;;;1.92;89.48;100038.75;5074843;28;20052;-67
2021/11/28 08:30:03;;;;;;;0.00;0.00;;;;;;;1.96;89.50;100050.09;5038925;28;20318;-67
2021/11/28 08:32:29;;;;;;;0.03;0.03;;;;;;;1.99;89.47;100044.22;5071018;28;20020;-67
2021/11/28 08:34:54;;;;;;;0.10;0.10;;;;;;;2.01;89.49;100047.75;5076016;28;20528;-68
2021/11/28 08:37:19;;;;;;;0.10;0.10;;;;;;;2.05;89.31;100055.72;5057367;28;20024;-67
2021/11/28 08:39:46;;;;;;;0.10;0.10;;;;;;;2.08;89.19;100060.16;5058394;28;20093;-69
2021/11/28 08:42:13;;;;;;;0.10;0.10;;;;;;;2.11;89.06;100059.44;5075604;28;20105;-67
2021/11/28 08:44:39;;;;;;;0.00;0.00;;;;;;;2.12;89.08;100062.09;5056440;28;20282;-68
2021/11/28 08:47:04;;;;;;;0.10;0.10;;;;;;;2.13;89.25;100055.22;5075567;28;20274;-68
2021/11/28 08:49:30;;;;;;;0.10;0.10;;;;;;;2.14;88.93;100059.59;5058001;28;20020;-67
2021/11/28 08:51:55;;;;;;;0.00;0.00;;;;;;;2.15;88.56;100063.94;5074426;28;20041;-68
2021/11/28 08:54:21;;;;;;;0.10;0.10;;;;;;;2.17;88.77;100062.31;5075367;28;20409;-66
2021/11/28 08:56:50;;;;;;;0.00;0.00;;;;;;;2.16;88.93;100070.88;5067832;28;20092;-68
2021/11/28 08:59:16;;;;;;;0.07;0.07;;;;;;;2.14;88.61;100069.91;5028377;28;20058;-68
2021/11/28 09:01:41;;;;;;;0.17;0.17;;;;;;;2.16;88.60;100070.88;5043062;28;20622;-67
2021/11/28 09:04:07;;;;;;;0.20;0.20;;;;;;;2.14;88.42;100078.56;5054343;28;20087;-67
2021/11/28 09:06:33;;;;;;;0.10;0.10;;;;;;;2.15;88.67;100088.09;5055266;28;20032;-67
2021/11/28 09:08:58;;;;;;;0.10;0.10;;;;;;;2.16;88.17;100089.84;5055207;28;20025;-68
2021/11/28 09:11:24;;;;;;;0.10;0.10;;;;;;;2.15;88.09;100095.84;5055794;28;20040;-68
2021/11/28 09:13:49;;;;;;;0.10;0.10;;;;;;;2.16;88.06;100095.03;5037456;28;20040;-65
2021/11/28 09:16:15;;;;;;;0.20;0.20;;;;;;;2.16;87.20;100100.19;5055840;28;20033;-68
2021/11/28 09:18:45;;;;;;;0.20;0.20;;;;;;;2.16;86.72;100101.88;5021904;28;20021;-68
2021/11/28 09:21:15;;;;;;;0.17;0.17;;;;;;;2.11;86.46;100098.19;5039021;28;20031;-67
2021/11/28 09:26:24;;;;;;;0.20;0.20;;;;;;;1.98;86.90;100107.88;5055163;28;20309;-67
2021/11/28 09:28:49;;;;;;;0.20;0.20;;;;;;;1.94;86.90;100111.13;5055472;28;20613;-67
2021/11/28 09:31:15;;;;;;;0.30;0.30;;;;;;;1.89;86.96;100116.06;5055731;28;20039;-67
2021/11/28 09:33:41;;;;;;;0.20;0.20;;;;;;;1.86;87.18;100120.19;5055488;28;20009;-67
2021/11/28 09:36:07;;;;;;;0.20;0.20;;;;;;;1.83;87.14;100128.66;5055317;28;20417;-67
2021/11/28 09:38:32;;;;;;;0.20;0.20;;;;;;;1.80;87.06;100125.88;5038158;28;20597;-66
2021/11/28 09:41:00;;;;;;;0.10;0.10;;;;;;;1.78;87.24;100123.25;5055617;28;20299;-67
2021/11/28 09:43:27;;;;;;;0.10;0.10;;;;;;;1.76;87.05;100124.84;5055097;28;20261;-68
2021/11/28 09:45:55;;;;;;;0.17;0.17;;;;;;;1.73;87.09;100128.94;5049207;28;20278;-68
2021/11/28 09:48:24;;;;;;;0.20;0.20;;;;;;;1.72;87.21;100122.00;5079359;28;20278;-66
2021/11/28 09:50:52;;;;;;;0.20;0.20;;;;;;;1.72;87.29;100115.16;5078716;28;20320;-67
2021/11/28 09:53:18;;;;;;;0.20;0.20;;;;;;;1.71;87.41;100110.81;5061676;28;20290;-67
2021/11/28 09:55:43;;;;;;;0.20;0.20;;;;;;;1.71;87.39;100115.97;5079096;28;20653;-68
2021/11/28 09:58:09;;;;;;;0.10;0.10;;;;;;;1.71;87.44;100102.16;5079301;28;20073;-68
2021/11/28 10:00:36;;;;;;;0.20;0.20;;;;;;;1.69;87.47;100099.53;5078926;28;20100;-66
2021/11/28 10:03:01;;;;;;;0.20;0.20;;;;;;;1.71;87.79;100104.75;5079287;28;20039;-67
2021/11/28 10:05:27;;;;;;;0.20;0.20;;;;;;;1.69;87.45;100103.78;5043817;28;20306;-66
2021/11/28 10:07:52;;;;;;;0.10;0.10;;;;;;;1.71;87.17;100102.16;5079098;28;20283;-68
2021/11/28 10:10:22;;;;;;;0.20;0.20;;;;;;;1.67;87.08;100085.63;5079163;28;20063;-67
2021/11/28 10:12:50;;;;;;;0.20;0.20;;;;;;;1.66;87.38;100068.38;5079003;28;20098;-68
2021/11/28 10:15:30;;;;;;;0.20;0.20;;;;;;;1.66;87.58;100076.13;5061605;28;20371;-68
2021/11/28 10:17:57;;;;;;;0.10;0.10;;;;;;;1.75;87.53;100094.66;5078101;28;20561;-67
2021/11/28 10:20:25;;;;;;;0.10;0.10;;;;;;;1.74;87.79;100103.22;5061344;28;20274;-67
2021/11/28 10:22:51;;;;;;;0.10;0.10;;;;;;;1.78;87.70;100104.28;5044874;28;20298;-67
2021/11/28 10:25:30;;;;;;;0.10;0.10;;;;;;;1.80;87.73;100104.34;5061750;28;20279;-68
2021/11/28 10:27:58;;;;;;;0.20;0.20;;;;;;;1.82;87.70;100097.56;5079039;28;20024;-68
2021/11/28 10:30:26;;;;;;;0.10;0.10;;;;;;;1.81;87.89;100100.97;5061593;28;20274;-68
2021/11/28 10:32:52;;;;;;;0.20;0.20;;;;;;;1.81;87.81;100095.81;5080000;28;20274;-68
2021/11/28 10:35:18;;;;;;;0.20;0.20;;;;;;;1.83;87.60;100096.75;5063703;28;20374;-67
2021/11/28 10:37:47;;;;;;;0.20;0.20;;;;;;;1.81;87.61;100099.25;5081298;28;20424;-66
2021/11/28 10:40:17;;;;;;;0.20;0.20;;;;;;;1.84;87.73;100101.09;5080658;28;20270;-65
2021/11/28 10:42:45;;;;;;;0.23;0.23;;;;;;;1.87;88.01;100102.16;5062662;28;20293;-66
2021/11/28 10:45:16;;;;;;;0.27;0.27;;;;;;;1.90;87.77;100107.50;5079834;28;20383;-66
2021/11/28 10:47:49;;;;;;;0.10;0.10;;;;;;;1.95;87.81;100110.31;5062793;28;20283;-66
2021/11/28 10:50:25;;;;;;;0.20;0.20;;;;;;;2.02;87.67;100111.50;5060939;28;20568;-66
2021/11/28 10:52:53;;;;;;;0.10;0.10;;;;;;;2.05;87.59;100119.41;5077743;28;20279;-68
2021/11/28 10:55:23;;;;;;;0.10;0.10;;;;;;;2.04;87.46;100123.69;5044049;28;20544;-66
2021/11/28 10:58:04;;;;;;;0.10;0.10;;;;;;;2.07;87.43;100122.97;5077437;28;20304;-67
2021/11/28 11:00:30;;;;;;;0.20;0.20;;;;;;;2.09;87.35;100131.69;5060636;28;20277;-66
2021/11/28 11:02:55;;;;;;;0.10;0.10;;;;;;;2.11;87.00;100130.06;5078048;28;20610;-67
2021/11/28 11:05:23;;;;;;;0.20;0.20;;;;;;;2.09;87.16;100139.44;5077455;28;20111;-67
2021/11/28 11:07:52;;;;;;;0.30;0.30;;;;;;;2.12;87.19;100139.56;5077667;28;20016;-66
2021/11/28 11:10:20;;;;;;;0.20;0.20;;;;;;;2.09;87.31;100129.09;5077328;28;20305;-68
2021/11/28 11:12:46;;;;;;;0.30;0.30;;;;;;;2.10;87.35;100119.66;5077475;28;20727;-67
2021/11/28 11:15:15;;;;;;;0.20;0.20;;;;;;;2.11;87.64;100105.94;5078020;28;20305;-68
2021/11/28 11:17:55;;;;;;;0.20;0.20;;;;;;;2.17;87.57;100117.47;5059902;28;20289;-66
2021/11/28 11:20:25;;;;;;;0.20;0.20;;;;;;;2.17;87.17;100120.03;5077414;28;20533;-67
2021/11/28 11:22:51;;;;;;;0.10;0.10;;;;;;;2.18;87.65;100118.34;5077672;28;20370;-67
2021/11/28 11:25:17;;;;;;;0.20;0.20;;;;;;;2.16;87.33;100105.34;5060120;28;20266;-67
2021/11/28 11:27:48;;;;;;;0.20;0.20;;;;;;;2.19;87.25;100107.22;5060204;28;20579;-68
2021/11/28 11:30:15;;;;;;;0.20;0.20;;;;;;;2.23;87.36;100109.13;5060824;28;20335;-68
2021/11/28 11:32:45;;;;;;;0.10;0.10;;;;;;;2.26;87.35;100105.81;5077211;28;20271;-67
2021/11/28 11:35:16;;;;;;;0.20;0.20;;;;;;;2.28;87.22;100101.59;5077575;28;20354;-69
2021/11/28 11:37:42;;;;;;;0.20;0.20;;;;;;;2.31;87.26;100107.81;5077044;28;20275;-68
2021/11/28 11:40:09;;;;;;;0.10;0.10;;;;;;;2.37;87.30;100098.59;5060125;28;20281;-68
2021/11/28 11:42:36;;;;;;;0.20;0.20;;;;;;;2.39;86.21;100094.38;5042535;28;20365;-70
2021/11/28 11:45:02;;;;;;;0.20;0.20;;;;;;;2.40;86.13;100091.88;5059931;28;20719;-68